createdAt,value
2023-01-21T00:01:51.223Z,68.43
2023-01-21T00:04:19.565Z,69.50
2023-01-21T00:06:47.804Z,78.97
2023-01-21T00:09:15.779Z,69.72
2023-01-21T00:11:43.843Z,78.05
2023-01-21T00:14:15.492Z,76.72
2023-01-21T00:16:45.452Z,81.57
2023-01-21T00:19:13.528Z,90.85
2023-01-21T00:21:41.531Z,91.57
2023-01-21T00:24:09.695Z,89.13
2023-01-21T00:26:37.898Z,91.10
2023-01-21T00:29:05.904Z,84.57
2023-01-21T00:31:35.660Z,87.50
2023-01-21T00:34:04.000Z,97.38
2023-01-21T00:36:32.149Z,102.60
2023-01-21T00:39:00.373Z,107.80
2023-01-21T00:41:28.482Z,105.43
2023-01-21T00:43:56.721Z,97.60
2023-01-21T00:46:25.002Z,102.55
2023-01-21T00:48:56.046Z,117.57
2023-01-21T00:51:24.042Z,101.70
2023-01-21T00:53:51.881Z,107.60
2023-01-21T00:56:22.803Z,113.13
2023-01-21T00:58:50.991Z,116.38
2023-01-21T01:01:20.844Z,116.05
2023-01-21T01:03:50.420Z,113.80
2023-01-21T01:06:21.362Z,125.45
2023-01-21T01:08:51.910Z,126.20
2023-01-21T01:11:21.616Z,111.25
2023-01-21T01:13:49.558Z,115.88
2023-01-21T01:16:17.938Z,126.68
2023-01-21T01:18:46.245Z,121.63
2023-01-21T01:21:15.971Z,106.30
2023-01-21T01:23:48.122Z,117.80
2023-01-21T01:26:18.189Z,121.47
2023-01-21T01:28:46.576Z,121.85
2023-01-21T01:31:16.618Z,123.63
2023-01-21T01:33:44.796Z,111.38
2023-01-21T01:36:15.273Z,130.57
2023-01-21T01:38:43.625Z,114.07
2023-01-21T01:41:21.146Z,116.90
2023-01-21T01:43:58.858Z,123.22
2023-01-21T01:46:27.999Z,111.68
2023-01-21T01:49:00.416Z,108.97
2023-01-21T01:51:34.681Z,116.55
2023-01-21T01:54:03.038Z,126.45
2023-01-21T01:56:32.704Z,126.30
2023-01-21T01:59:00.852Z,112.70
2023-01-21T02:01:29.097Z,137.13
2023-01-21T02:04:00.903Z,130.82
2023-01-21T02:06:29.214Z,124.60
2023-01-21T02:09:00.300Z,143.05
2023-01-21T02:11:28.250Z,130.40
2023-01-21T02:13:59.801Z,137.98
2023-01-21T02:17:03.460Z,132.45
2023-01-21T02:19:51.129Z,138.25
2023-01-21T02:22:27.116Z,133.52
2023-01-21T02:25:38.233Z,130.13
2023-01-21T02:28:45.236Z,130.23
2023-01-21T02:31:47.190Z,137.98
2023-01-21T02:34:29.669Z,131.35
2023-01-21T02:37:07.007Z,130.05
2023-01-21T02:39:55.455Z,131.93
2023-01-21T02:42:27.416Z,133.70
2023-01-21T02:45:01.861Z,157.82
2023-01-21T02:47:35.903Z,153.68
2023-01-21T02:50:08.481Z,160.00
2023-01-21T02:52:39.033Z,151.05
2023-01-21T02:55:11.053Z,172.40
2023-01-21T02:57:43.914Z,158.07
2023-01-21T03:00:16.738Z,155.80
2023-01-21T03:02:59.146Z,162.25
2023-01-21T03:05:36.335Z,173.13
2023-01-21T03:08:08.510Z,161.25
2023-01-21T03:10:40.610Z,156.15
2023-01-21T03:13:14.469Z,159.65
2023-01-21T03:16:03.797Z,162.98
2023-01-21T03:18:36.445Z,144.63
2023-01-21T03:21:08.326Z,160.00
2023-01-21T03:23:39.320Z,153.00
2023-01-21T03:26:09.296Z,139.47
2023-01-21T03:28:42.972Z,138.27
2023-01-21T03:31:14.050Z,147.93
2023-01-21T03:33:46.775Z,143.25
2023-01-21T03:36:23.128Z,147.60
2023-01-21T03:38:53.147Z,149.45
2023-01-21T03:41:24.546Z,151.00
2023-01-21T03:43:53.392Z,137.77
2023-01-21T03:46:25.485Z,135.77
2023-01-21T03:48:57.200Z,137.52
2023-01-21T03:51:30.734Z,138.40
2023-01-21T03:54:00.298Z,129.10
2023-01-21T03:56:28.690Z,139.52
2023-01-21T03:58:56.671Z,130.80
2023-01-21T04:01:24.776Z,137.13
2023-01-21T04:03:52.898Z,135.52
2023-01-21T04:06:22.889Z,127.20
2023-01-21T04:08:52.089Z,121.10
2023-01-21T04:11:19.853Z,137.93
2023-01-21T04:13:48.054Z,131.00
2023-01-21T04:16:15.903Z,138.68
2023-01-21T04:18:44.039Z,133.88
2023-01-21T04:21:12.320Z,145.02
2023-01-21T04:23:39.993Z,148.82
2023-01-21T04:26:09.480Z,162.50
2023-01-21T04:28:37.452Z,143.88
2023-01-21T04:31:05.583Z,149.55
2023-01-21T04:33:33.688Z,134.95
2023-01-21T04:36:02.396Z,138.93
2023-01-21T04:38:30.383Z,153.48
2023-01-21T04:40:58.372Z,150.18
2023-01-21T04:43:27.942Z,171.10
2023-01-21T04:45:56.194Z,161.40
2023-01-21T04:48:24.408Z,168.13
2023-01-21T04:50:52.402Z,168.55
2023-01-21T04:53:21.903Z,149.95
2023-01-21T04:55:52.555Z,183.07
2023-01-21T04:58:31.102Z,165.52
2023-01-21T05:01:00.688Z,165.57
2023-01-21T05:03:29.033Z,176.00
2023-01-21T05:05:57.111Z,170.43
2023-01-21T05:08:25.304Z,179.90
2023-01-21T05:10:55.856Z,201.00
2023-01-21T05:13:26.398Z,199.55
2023-01-21T05:15:54.953Z,202.38
2023-01-21T05:18:24.298Z,197.05
2023-01-21T05:20:52.261Z,177.53
2023-01-21T05:23:22.581Z,211.05
2023-01-21T05:25:50.646Z,184.50
2023-01-21T05:28:18.898Z,184.90
2023-01-21T05:30:46.794Z,197.23
2023-01-21T05:33:14.782Z,190.18
2023-01-21T05:35:44.120Z,187.50
2023-01-21T05:38:12.386Z,176.97
2023-01-21T05:40:40.148Z,183.90
2023-01-21T05:43:07.957Z,187.15
2023-01-21T05:45:35.961Z,182.32
2023-01-21T05:48:05.769Z,173.75
2023-01-21T05:50:33.689Z,185.53
2023-01-21T05:53:03.023Z,167.63
2023-01-21T05:55:31.274Z,155.67
2023-01-21T05:57:59.404Z,175.43
2023-01-21T06:00:27.886Z,158.50
2023-01-21T06:02:58.574Z,176.63
2023-01-21T06:05:26.535Z,174.27
2023-01-21T06:07:54.497Z,161.05
2023-01-21T06:10:26.843Z,170.10
2023-01-21T06:12:55.112Z,171.63
2023-01-21T06:15:24.332Z,158.30
2023-01-21T06:17:52.322Z,159.90
2023-01-21T06:20:23.406Z,178.33
2023-01-21T06:22:51.868Z,151.03
2023-01-21T06:25:20.102Z,157.93
2023-01-21T06:27:49.813Z,152.18
2023-01-21T06:30:18.445Z,149.00
2023-01-21T06:32:46.751Z,141.57
2023-01-21T06:35:14.910Z,135.10
2023-01-21T06:37:43.169Z,140.27
2023-01-21T06:40:12.259Z,136.85
2023-01-21T06:42:40.207Z,128.23
2023-01-21T06:45:10.707Z,119.85
2023-01-21T06:47:41.502Z,120.05
2023-01-21T06:50:11.243Z,116.18
2023-01-21T06:52:39.387Z,113.45
2023-01-21T06:55:08.049Z,106.40
